createdAt,value
2022-11-17T00:01:10.728Z,12.20
2022-11-17T00:04:17.040Z,12.20
2022-11-17T00:10:28.098Z,12.90
2022-11-17T00:13:52.364Z,8.50
2022-11-17T00:16:58.713Z,9.00
2022-11-17T00:23:47.482Z,9.70
2022-11-17T00:27:03.201Z,7.10
2022-11-17T00:30:31.176Z,8.10
2022-11-17T00:33:55.058Z,8.50
2022-11-17T00:37:01.580Z,8.20
2022-11-17T00:40:09.544Z,8.60
2022-11-17T00:43:16.051Z,8.60
2022-11-17T00:46:22.476Z,8.50
2022-11-17T00:49:28.793Z,9.40
2022-11-17T00:55:39.786Z,9.40
2022-11-17T00:58:46.124Z,10.40
2022-11-17T01:01:52.506Z,10.60
2022-11-17T01:04:58.923Z,10.60
2022-11-17T01:11:12.889Z,10.50
2022-11-17T01:14:24.617Z,10.90
2022-11-17T01:17:31.042Z,9.60
2022-11-17T01:20:37.805Z,9.80
2022-11-17T01:23:45.891Z,8.30
2022-11-17T01:26:52.413Z,8.80
2022-11-17T01:29:58.779Z,9.40
2022-11-17T01:36:13.223Z,8.20
2022-11-17T01:39:19.939Z,8.50
2022-11-17T01:42:28.277Z,9.20
2022-11-17T01:45:35.147Z,9.10
2022-11-17T01:48:42.006Z,9.40
2022-11-17T01:51:52.704Z,10.70
2022-11-17T01:55:00.631Z,10.70
2022-11-17T01:58:10.456Z,10.50
2022-11-17T02:01:17.016Z,11.40
2022-11-17T02:04:23.873Z,12.00
2022-11-17T02:07:34.326Z,9.70
2022-11-17T02:10:42.442Z,12.20
2022-11-17T02:13:53.241Z,10.20
2022-11-17T02:17:06.288Z,10.80
2022-11-17T02:20:23.991Z,10.90
2022-11-17T02:23:58.956Z,11.70
2022-11-17T02:27:45.057Z,10.20
2022-11-17T02:31:13.730Z,10.60
2022-11-17T02:34:30.862Z,11.20
2022-11-17T02:37:49.630Z,10.70
2022-11-17T02:41:00.846Z,11.70
2022-11-17T02:44:12.809Z,11.10
2022-11-17T02:47:24.399Z,12.10
2022-11-17T02:50:32.226Z,11.80
2022-11-17T02:53:39.907Z,12.10
2022-11-17T02:56:46.680Z,11.40
2022-11-17T02:59:53.247Z,12.10
2022-11-17T03:03:17.952Z,11.30
2022-11-17T03:06:36.075Z,13.70
2022-11-17T03:09:51.350Z,12.70
2022-11-17T03:13:03.168Z,12.30
2022-11-17T03:16:23.361Z,12.10
2022-11-17T03:19:34.546Z,12.00
2022-11-17T03:22:50.035Z,12.10
2022-11-17T03:26:00.096Z,9.40
2022-11-17T03:29:11.570Z,11.00
2022-11-17T03:32:19.354Z,11.20
2022-11-17T03:35:30.556Z,11.90
2022-11-17T03:38:39.759Z,10.40
2022-11-17T03:41:49.400Z,10.90
2022-11-17T03:45:00.135Z,9.60
2022-11-17T03:48:14.498Z,9.90
2022-11-17T03:51:23.820Z,9.70
2022-11-17T03:54:30.369Z,9.70
2022-11-17T03:57:45.118Z,9.50
2022-11-17T04:00:53.965Z,9.00
2022-11-17T04:04:00.269Z,9.10
2022-11-17T04:10:13.702Z,9.30
2022-11-17T04:13:37.490Z,7.70
2022-11-17T04:16:44.123Z,10.00
2022-11-17T04:19:50.449Z,8.80
2022-11-17T04:26:32.115Z,8.10
2022-11-17T04:29:38.438Z,9.10
2022-11-17T04:35:54.030Z,9.90
2022-11-17T04:39:01.121Z,9.80
2022-11-17T04:42:07.500Z,9.50
2022-11-17T04:48:18.979Z,10.40
2022-11-17T04:54:30.315Z,7.40
2022-11-17T04:57:37.146Z,11.00
2022-11-17T05:00:43.672Z,10.80
2022-11-17T05:03:51.522Z,10.30
2022-11-17T05:06:57.882Z,11.10
2022-11-17T05:13:26.343Z,13.50
2022-11-17T05:16:50.263Z,14.00
2022-11-17T05:19:57.615Z,12.10
2022-11-17T05:23:21.334Z,12.60
2022-11-17T05:26:29.176Z,11.60
2022-11-17T05:29:35.433Z,11.40
2022-11-17T05:32:41.738Z,11.90
2022-11-17T05:38:53.495Z,12.70
2022-11-17T05:41:59.830Z,12.30
2022-11-17T05:48:11.032Z,13.20
2022-11-17T05:51:18.097Z,11.60
2022-11-17T05:54:24.609Z,11.80
2022-11-17T05:57:33.847Z,12.60
2022-11-17T06:00:41.710Z,11.20
2022-11-17T06:03:55.342Z,11.50
2022-11-17T06:07:02.996Z,11.00
2022-11-17T06:10:11.678Z,10.70
2022-11-17T06:13:20.432Z,9.90
2022-11-17T06:16:32.735Z,11.10
2022-11-17T06:19:42.754Z,11.30
2022-11-17T06:22:50.706Z,11.10
2022-11-17T06:25:58.072Z,21.20
2022-11-17T06:29:05.805Z,12.40
2022-11-17T06:32:13.374Z,14.40
2022-11-17T06:35:20.542Z,13.20
2022-11-17T06:38:26.911Z,10.30
2022-11-17T06:44:38.496Z,10.80
2022-11-17T06:50:52.223Z,10.00
2022-11-17T06:53:58.572Z,10.50
2022-11-17T07:00:11.593Z,10.00
2022-11-17T07:03:17.984Z,8.70
2022-11-17T07:09:28.887Z,8.60
2022-11-17T07:12:36.137Z,7.10
2022-11-17T07:15:42.468Z,7.90
2022-11-17T07:21:53.607Z,6.10
2022-11-17T07:28:04.864Z,6.70
2022-11-17T07:31:12.036Z,8.10
2022-11-17T07:34:18.393Z,8.30
2022-11-17T07:40:29.835Z,10.10
2022-11-17T07:43:36.909Z,9.60
2022-11-17T07:46:43.322Z,8.80
2022-11-17T07:49:49.675Z,10.80
2022-11-17T07:56:06.667Z,10.10
2022-11-17T07:59:17.180Z,10.00
2022-11-17T08:02:28.217Z,10.20
2022-11-17T08:05:41.584Z,11.50
2022-11-17T08:08:49.840Z,11.70
2022-11-17T08:11:57.702Z,11.10
2022-11-17T08:15:04.240Z,11.30
2022-11-17T08:18:10.622Z,11.20
2022-11-17T08:24:22.282Z,12.50
2022-11-17T08:30:34.937Z,12.40
2022-11-17T08:33:41.368Z,12.60
2022-11-17T08:36:47.643Z,10.60
2022-11-17T08:43:01.439Z,10.70
2022-11-17T08:46:12.095Z,9.30
2022-11-17T08:49:18.530Z,9.70
2022-11-17T08:52:24.873Z,10.60
2022-11-17T08:58:39.087Z,7.20
2022-11-17T09:01:45.573Z,7.60
2022-11-17T09:04:52.218Z,6.40
2022-11-17T09:08:22.402Z,7.60
2022-11-17T09:11:26.690Z,7.30
2022-11-17T09:14:32.975Z,10.60
2022-11-17T09:20:45.883Z,10.70
2022-11-17T09:23:52.445Z,11.00
2022-11-17T09:26:58.678Z,8.90
2022-11-17T09:30:05.360Z,8.20
2022-11-17T09:33:11.625Z,8.80
2022-11-17T09:36:18.800Z,9.60
2022-11-17T09:39:25.328Z,8.80
2022-11-17T09:42:32.254Z,7.80
2022-11-17T09:45:41.210Z,9.00
2022-11-17T09:48:56.916Z,7.50
2022-11-17T10:05:44.900Z,6.70
2022-11-17T10:09:00.590Z,6.00
2022-11-17T10:12:17.613Z,8.10
2022-11-17T10:15:30.835Z,6.90
2022-11-17T10:18:39.534Z,6.90
2022-11-17T10:21:46.500Z,7.50
2022-11-17T10:24:55.656Z,7.20
2022-11-17T10:28:01.927Z,8.00
2022-11-17T10:31:14.704Z,8.80
2022-11-17T10:34:40.675Z,9.20
2022-11-17T10:37:57.985Z,8.00
2022-11-17T10:41:04.956Z,9.00
2022-11-17T10:44:23.292Z,8.60
2022-11-17T10:47:33.628Z,8.60
2022-11-17T10:50:51.875Z,11.00
2022-11-17T10:54:22.988Z,10.40
2022-11-17T10:57:29.269Z,10.70
2022-11-17T11:03:51.712Z,11.10
2022-11-17T11:07:10.125Z,10.70
2022-11-17T11:10:20.218Z,11.70
2022-11-17T11:13:32.786Z,12.20
2022-11-17T11:16:42.446Z,10.60
2022-11-17T11:19:54.990Z,12.40
2022-11-17T11:23:09.412Z,13.90
2022-11-17T11:26:31.702Z,11.70
2022-11-17T11:29:53.802Z,12.80
2022-11-17T11:33:10.714Z,13.10
2022-11-17T11:36:32.193Z,15.20
2022-11-17T11:39:50.905Z,14.00
2022-11-17T11:43:01.152Z,13.50
2022-11-17T11:46:17.701Z,13.60
2022-11-17T11:49:36.104Z,13.30
2022-11-17T11:52:47.037Z,13.20
2022-11-17T11:56:01.877Z,12.70
2022-11-17T11:59:20.705Z,11.00
2022-11-17T12:02:32.827Z,12.10
2022-11-17T12:05:44.225Z,11.80
2022-11-17T12:08:59.177Z,10.60
2022-11-17T12:12:15.345Z,11.30
2022-11-17T12:18:44.796Z,10.20
2022-11-17T12:21:57.897Z,12.40
2022-11-17T12:25:15.312Z,9.40
2022-11-17T12:28:39.909Z,9.00
2022-11-17T12:31:47.968Z,8.80
2022-11-17T12:35:26.768Z,9.40
2022-11-17T12:38:45.870Z,8.70
2022-11-17T12:42:11.130Z,9.20
2022-11-17T12:45:17.796Z,10.90
2022-11-17T12:48:34.801Z,9.50
2022-11-17T12:51:53.315Z,10.60
2022-11-17T12:55:04.741Z,9.20
2022-11-17T12:58:21.969Z,10.20
2022-11-17T13:01:37.153Z,10.20
2022-11-17T13:04:49.671Z,9.70
2022-11-17T13:08:20.468Z,9.70
2022-11-17T13:11:27.034Z,8.50
2022-11-17T13:14:33.709Z,9.90
2022-11-17T13:17:43.954Z,10.00
2022-11-17T13:20:51.056Z,9.70
2022-11-17T13:23:57.989Z,10.80
2022-11-17T13:27:07.493Z,10.30
2022-11-17T13:30:23.416Z,10.40
2022-11-17T13:33:34.327Z,12.70
2022-11-17T13:36:57.741Z,11.70
2022-11-17T13:40:19.931Z,11.50
2022-11-17T13:43:29.358Z,10.40
2022-11-17T13:46:38.877Z,10.90
2022-11-17T13:49:45.189Z,12.50
2022-11-17T13:56:00.383Z,13.70
2022-11-17T14:02:30.678Z,14.80
2022-11-17T14:05:37.113Z,15.90
2022-11-17T14:08:45.633Z,15.10
2022-11-17T14:11:52.355Z,16.90
2022-11-17T14:14:58.738Z,15.90
2022-11-17T14:21:30.710Z,13.90
2022-11-17T14:24:37.538Z,14.90
2022-11-17T14:27:44.728Z,15.60
2022-11-17T14:30:54.913Z,16.90
2022-11-17T14:34:01.313Z,15.80
2022-11-17T14:37:10.552Z,17.30
2022-11-17T14:40:19.659Z,16.00
2022-11-17T14:43:26.277Z,15.00
2022-11-17T14:46:32.557Z,14.00
2022-11-17T14:49:38.835Z,18.70
2022-11-17T14:55:50.266Z,14.80
2022-11-17T15:02:03.041Z,16.50
2022-11-17T15:08:14.837Z,17.20
2022-11-17T15:11:21.311Z,17.40
2022-11-17T15:14:27.837Z,20.70
2022-11-17T15:17:34.275Z,17.10
2022-11-17T15:20:40.587Z,16.90
2022-11-17T15:26:51.879Z,21.80
2022-11-17T15:33:02.916Z,20.90
2022-11-17T15:36:11.056Z,19.30
2022-11-17T15:39:18.238Z,17.30
2022-11-17T15:42:24.817Z,18.50
2022-11-17T15:48:38.983Z,20.00
2022-11-17T15:51:45.284Z,19.90
2022-11-17T15:57:57.610Z,20.50
2022-11-17T16:01:17.924Z,26.00
2022-11-17T16:04:24.224Z,18.20
2022-11-17T16:10:35.210Z,18.90
2022-11-17T16:16:48.019Z,16.90
2022-11-17T16:19:54.316Z,16.30
2022-11-17T16:26:06.599Z,17.50
2022-11-17T16:29:13.801Z,16.30
2022-11-17T16:32:20.457Z,19.00
2022-11-17T16:35:26.798Z,21.70
2022-11-17T16:41:39.364Z,18.70
2022-11-17T16:44:45.690Z,16.90
2022-11-17T16:50:56.594Z,24.30
2022-11-17T16:57:08.565Z,23.20
2022-11-17T17:00:17.904Z,19.50
2022-11-17T17:03:24.802Z,18.50
2022-11-17T17:06:31.618Z,18.60
2022-11-17T17:09:38.014Z,16.30
2022-11-17T17:15:48.824Z,18.00
2022-11-17T17:19:00.345Z,17.70
2022-11-17T17:22:06.551Z,20.20
2022-11-17T17:25:14.347Z,17.50
2022-11-17T17:28:20.666Z,18.50
2022-11-17T17:34:32.502Z,16.40
2022-11-17T17:40:43.397Z,16.50
2022-11-17T17:46:57.211Z,18.90
2022-11-17T17:50:03.479Z,14.90
2022-11-17T17:56:15.660Z,17.10
2022-11-17T17:59:21.999Z,17.10
2022-11-17T18:05:33.550Z,18.20
2022-11-17T18:08:40.497Z,18.30
2022-11-17T18:11:49.691Z,17.30
2022-11-17T18:14:56.533Z,20.00
2022-11-17T18:21:09.352Z,20.70
2022-11-17T18:24:15.918Z,17.20
2022-11-17T18:27:22.250Z,19.50
2022-11-17T18:33:33.128Z,21.10
2022-11-17T18:39:44.045Z,19.70
2022-11-17T18:42:50.293Z,20.30
2022-11-17T18:49:01.785Z,21.80
2022-11-17T18:52:09.932Z,21.60
2022-11-17T18:55:16.197Z,21.60
2022-11-17T18:58:22.811Z,20.00
2022-11-17T19:01:30.809Z,23.60
2022-11-17T19:04:37.127Z,21.20
2022-11-17T19:07:43.461Z,23.40
2022-11-17T19:14:02.433Z,21.90
2022-11-17T19:17:09.016Z,20.60
2022-11-17T19:20:16.498Z,22.60
2022-11-17T19:23:23.011Z,21.00
2022-11-17T19:26:31.735Z,22.40
2022-11-17T19:29:40.313Z,23.20
2022-11-17T19:32:46.832Z,21.40
2022-11-17T19:35:53.097Z,21.60
2022-11-17T19:39:01.170Z,20.60
2022-11-17T19:42:07.828Z,22.20
2022-11-17T19:45:14.333Z,20.40
2022-11-17T19:48:20.628Z,22.20
2022-11-17T19:54:32.173Z,21.20
2022-11-17T20:00:43.462Z,21.90
2022-11-17T20:03:50.710Z,18.40
2022-11-17T20:06:57.136Z,20.30
2022-11-17T20:10:03.459Z,20.30
2022-11-17T20:13:09.747Z,21.90
2022-11-17T20:19:21.449Z,19.90
2022-11-17T20:22:27.717Z,20.50
2022-11-17T20:28:39.646Z,22.60
2022-11-17T20:31:46.032Z,21.60
2022-11-17T20:37:56.943Z,20.50
2022-11-17T20:41:04.050Z,22.20
2022-11-17T20:44:24.226Z,21.10
2022-11-17T20:47:30.674Z,20.10
2022-11-17T20:53:42.011Z,21.60
2022-11-17T20:56:48.315Z,19.30
2022-11-17T21:03:00.184Z,20.60
2022-11-17T21:06:07.283Z,20.30
2022-11-17T21:09:13.845Z,19.70
2022-11-17T21:12:20.709Z,19.20
2022-11-17T21:15:27.129Z,18.50
2022-11-17T21:18:33.676Z,18.50
2022-11-17T21:21:40.027Z,18.10
2022-11-17T21:27:50.913Z,20.60
2022-11-17T21:34:03.270Z,21.60
2022-11-17T21:37:09.684Z,20.80
2022-11-17T21:40:19.093Z,18.90
2022-11-17T21:43:25.409Z,20.30
2022-11-17T21:49:37.380Z,20.00
2022-11-17T21:52:43.760Z,21.80
2022-11-17T21:58:57.440Z,19.60
2022-11-17T22:02:03.724Z,19.70
2022-11-17T22:08:15.400Z,19.00
2022-11-17T22:14:42.309Z,21.30
2022-11-17T22:20:54.899Z,18.20
2022-11-17T22:24:01.229Z,19.50
2022-11-17T22:30:14.616Z,20.20
2022-11-17T22:33:21.591Z,21.20
2022-11-17T22:36:27.840Z,20.20
2022-11-17T22:39:34.203Z,18.90
2022-11-17T22:42:40.550Z,20.90
2022-11-17T22:48:51.511Z,21.90
2022-11-17T22:52:07.802Z,19.30
2022-11-17T22:55:14.025Z,20.30
2022-11-17T22:58:20.293Z,18.30
2022-11-17T23:04:31.326Z,18.30
2022-11-17T23:10:42.415Z,18.00
2022-11-17T23:16:53.477Z,18.80
2022-11-17T23:19:59.850Z,17.80
2022-11-17T23:26:12.813Z,19.90
2022-11-17T23:29:19.437Z,18.70
2022-11-17T23:32:25.968Z,19.70
2022-11-17T23:38:37.038Z,20.30
2022-11-17T23:41:43.390Z,19.90
2022-11-17T23:47:54.653Z,20.70
2022-11-17T23:51:04.939Z,19.30
2022-11-17T23:54:14.384Z,19.10
2022-11-17T23:57:20.604Z,19.60
